sensor_id;sensor_type;location;lat;lon;timestamp;temperature;humidity
64961;SHT31;51487;52.266;10.542;2023-11-22T00:00:08;3.85;83.24
64961;SHT31;51487;52.266;10.542;2023-11-22T00:02:34;3.87;83.68
64961;SHT31;51487;52.266;10.542;2023-11-22T00:05:00;3.79;83.58
64961;SHT31;51487;52.266;10.542;2023-11-22T00:07:25;3.94;83.12
64961;SHT31;51487;52.266;10.542;2023-11-22T00:09:54;3.92;82.95
64961;SHT31;51487;52.266;10.542;2023-11-22T00:12:20;3.93;83.07
64961;SHT31;51487;52.266;10.542;2023-11-22T00:14:45;3.99;83.56
64961;SHT31;51487;52.266;10.542;2023-11-22T00:17:12;3.97;83.34
64961;SHT31;51487;52.266;10.542;2023-11-22T00:19:38;3.93;84.05
64961;SHT31;51487;52.266;10.542;2023-11-22T00:22:04;3.86;84.53
64961;SHT31;51487;52.266;10.542;2023-11-22T00:24:37;3.85;84.57
64961;SHT31;51487;52.266;10.542;2023-11-22T00:27:02;3.99;84.75
64961;SHT31;51487;52.266;10.542;2023-11-22T00:29:28;3.83;85.40
64961;SHT31;51487;52.266;10.542;2023-11-22T00:31:54;3.75;85.67
64961;SHT31;51487;52.266;10.542;2023-11-22T00:34:19;3.83;85.62
64961;SHT31;51487;52.266;10.542;2023-11-22T00:36:45;3.78;85.90
64961;SHT31;51487;52.266;10.542;2023-11-22T00:39:10;3.83;85.70
64961;SHT31;51487;52.266;10.542;2023-11-22T00:41:38;3.85;85.45
64961;SHT31;51487;52.266;10.542;2023-11-22T00:44:04;3.78;85.69
64961;SHT31;51487;52.266;10.542;2023-11-22T00:46:32;3.73;86.04
64961;SHT31;51487;52.266;10.542;2023-11-22T00:48:58;3.69;86.36
64961;SHT31;51487;52.266;10.542;2023-11-22T00:51:24;3.73;86.24
64961;SHT31;51487;52.266;10.542;2023-11-22T00:53:49;3.73;86.15
64961;SHT31;51487;52.266;10.542;2023-11-22T00:56:15;3.51;86.90
64961;SHT31;51487;52.266;10.542;2023-11-22T00:58:41;3.59;86.92
64961;SHT31;51487;52.266;10.542;2023-11-22T01:01:07;3.62;87.20
64961;SHT31;51487;52.266;10.542;2023-11-22T01:03:33;3.73;86.69
64961;SHT31;51487;52.266;10.542;2023-11-22T01:05:58;3.92;86.21
64961;SHT31;51487;52.266;10.542;2023-11-22T01:08:24;3.87;86.21
64961;SHT31;51487;52.266;10.542;2023-11-22T01:10:49;3.93;85.96
64961;SHT31;51487;52.266;10.542;2023-11-22T01:13:15;3.94;85.75
64961;SHT31;51487;52.266;10.542;2023-11-22T01:15:41;3.89;85.49
64961;SHT31;51487;52.266;10.542;2023-11-22T01:18:07;3.96;85.89
64961;SHT31;51487;52.266;10.542;2023-11-22T01:20:33;3.90;85.92
64961;SHT31;51487;52.266;10.542;2023-11-22T01:22:58;3.96;85.97
64961;SHT31;51487;52.266;10.542;2023-11-22T01:25:24;3.93;86.07
64961;SHT31;51487;52.266;10.542;2023-11-22T01:27:49;3.92;86.11
64961;SHT31;51487;52.266;10.542;2023-11-22T01:30:15;3.82;86.33
64961;SHT31;51487;52.266;10.542;2023-11-22T01:32:41;3.76;86.65
64961;SHT31;51487;52.266;10.542;2023-11-22T01:35:07;3.78;86.46
64961;SHT31;51487;52.266;10.542;2023-11-22T01:37:33;3.68;87.02
64961;SHT31;51487;52.266;10.542;2023-11-22T01:39:58;3.45;87.69
64961;SHT31;51487;52.266;10.542;2023-11-22T01:42:24;3.34;88.01
64961;SHT31;51487;52.266;10.542;2023-11-22T01:44:51;3.30;88.35
64961;SHT31;51487;52.266;10.542;2023-11-22T01:47:18;3.17;88.63
64961;SHT31;51487;52.266;10.542;2023-11-22T01:49:45;3.08;89.15
64961;SHT31;51487;52.266;10.542;2023-11-22T01:52:11;3.04;89.17
64961;SHT31;51487;52.266;10.542;2023-11-22T01:54:38;2.99;89.33
64961;SHT31;51487;52.266;10.542;2023-11-22T01:57:05;2.97;89.64
64961;SHT31;51487;52.266;10.542;2023-11-22T01:59:33;3.01;89.79
64961;SHT31;51487;52.266;10.542;2023-11-22T02:01:59;2.97;89.95
64961;SHT31;51487;52.266;10.542;2023-11-22T02:04:24;2.96;90.53
64961;SHT31;51487;52.266;10.542;2023-11-22T02:06:51;2.96;90.66
64961;SHT31;51487;52.266;10.542;2023-11-22T02:09:16;2.96;90.98
64961;SHT31;51487;52.266;10.542;2023-11-22T02:11:43;2.92;91.41
64961;SHT31;51487;52.266;10.542;2023-11-22T02:14:11;2.80;91.96
64961;SHT31;51487;52.266;10.542;2023-11-22T02:16:37;2.71;92.38
64961;SHT31;51487;52.266;10.542;2023-11-22T02:19:06;2.60;92.74
64961;SHT31;51487;52.266;10.542;2023-11-22T02:21:33;2.57;93.23
64961;SHT31;51487;52.266;10.542;2023-11-22T02:23:59;2.57;93.26
64961;SHT31;51487;52.266;10.542;2023-11-22T02:26:24;2.56;93.54
64961;SHT31;51487;52.266;10.542;2023-11-22T02:28:50;2.52;93.70
64961;SHT31;51487;52.266;10.542;2023-11-22T02:31:16;2.45;94.24
64961;SHT31;51487;52.266;10.542;2023-11-22T02:33:42;2.48;94.24
64961;SHT31;51487;52.266;10.542;2023-11-22T02:36:08;2.42;94.49
64961;SHT31;51487;52.266;10.542;2023-11-22T02:38:37;2.34;94.68
64961;SHT31;51487;52.266;10.542;2023-11-22T02:41:03;2.31;94.92
64961;SHT31;51487;52.266;10.542;2023-11-22T02:43:30;2.24;95.20
64961;SHT31;51487;52.266;10.542;2023-11-22T02:45:56;2.28;95.18
64961;SHT31;51487;52.266;10.542;2023-11-22T02:48:21;2.28;95.29
64961;SHT31;51487;52.266;10.542;2023-11-22T02:50:48;2.18;95.64
64961;SHT31;51487;52.266;10.542;2023-11-22T02:53:14;2.26;95.37
64961;SHT31;51487;52.266;10.542;2023-11-22T02:55:40;2.20;95.61
64961;SHT31;51487;52.266;10.542;2023-11-22T02:58:06;2.17;95.62
64961;SHT31;51487;52.266;10.542;2023-11-22T03:00:32;2.13;95.72
64961;SHT31;51487;52.266;10.542;2023-11-22T03:03:00;2.10;95.74
64961;SHT31;51487;52.266;10.542;2023-11-22T03:05:26;2.10;95.64
64961;SHT31;51487;52.266;10.542;2023-11-22T03:07:51;2.04;95.68
64961;SHT31;51487;52.266;10.542;2023-11-22T03:10:17;2.07;95.70
64961;SHT31;51487;52.266;10.542;2023-11-22T03:12:46;2.00;95.62
64961;SHT31;51487;52.266;10.542;2023-11-22T03:15:11;1.97;95.73
64961;SHT31;51487;52.266;10.542;2023-11-22T03:17:37;1.91;95.79
64961;SHT31;51487;52.266;10.542;2023-11-22T03:20:07;1.85;95.64
64961;SHT31;51487;52.266;10.542;2023-11-22T03:22:36;1.90;95.59
64961;SHT31;51487;52.266;10.542;2023-11-22T03:25:03;1.90;95.36
64961;SHT31;51487;52.266;10.542;2023-11-22T03:27:30;1.85;95.35
64961;SHT31;51487;52.266;10.542;2023-11-22T03:29:55;1.90;95.23
64961;SHT31;51487;52.266;10.542;2023-11-22T03:32:21;1.88;95.03
64961;SHT31;51487;52.266;10.542;2023-11-22T03:34:47;1.84;94.87
64961;SHT31;51487;52.266;10.542;2023-11-22T03:37:12;1.71;95.06
64961;SHT31;51487;52.266;10.542;2023-11-22T03:39:38;1.66;95.17
64961;SHT31;51487;52.266;10.542;2023-11-22T03:42:04;1.67;95.43
64961;SHT31;51487;52.266;10.542;2023-11-22T03:44:30;1.66;95.25
64961;SHT31;51487;52.266;10.542;2023-11-22T03:46:56;1.70;95.44
64961;SHT31;51487;52.266;10.542;2023-11-22T03:49:21;1.54;95.87
64961;SHT31;51487;52.266;10.542;2023-11-22T03:51:47;1.57;96.03
64961;SHT31;51487;52.266;10.542;2023-11-22T03:54:13;1.52;96.06
64961;SHT31;51487;52.266;10.542;2023-11-22T03:56:39;1.59;95.95
64961;SHT31;51487;52.266;10.542;2023-11-22T03:59:05;1.56;95.95
64961;SHT31;51487;52.266;10.542;2023-11-22T04:01:31;1.54;96.05
64961;SHT31;51487;52.266;10.542;2023-11-22T04:03:56;1.49;96.02
64961;SHT31;51487;52.266;10.542;2023-11-22T04:06:22;1.52;96.05
64961;SHT31;51487;52.266;10.542;2023-11-22T04:08:48;1.50;95.95
64961;SHT31;51487;52.266;10.542;2023-11-22T04:11:15;1.53;96.02
64961;SHT31;51487;52.266;10.542;2023-11-22T04:13:41;1.53;95.88
64961;SHT31;51487;52.266;10.542;2023-11-22T04:16:07;1.50;95.88
64961;SHT31;51487;52.266;10.542;2023-11-22T04:18:39;1.47;96.02
64961;SHT31;51487;52.266;10.542;2023-11-22T04:21:06;1.50;95.88
64961;SHT31;51487;52.266;10.542;2023-11-22T04:23:32;1.50;95.76
64961;SHT31;51487;52.266;10.542;2023-11-22T04:25:59;1.49;95.64
64961;SHT31;51487;52.266;10.542;2023-11-22T04:28:26;1.40;95.76
64961;SHT31;51487;52.266;10.542;2023-11-22T04:30:53;1.42;95.63
64961;SHT31;51487;52.266;10.542;2023-11-22T04:33:19;1.38;95.62
64961;SHT31;51487;52.266;10.542;2023-11-22T04:35:46;1.29;95.77
64961;SHT31;51487;52.266;10.542;2023-11-22T04:38:11;1.31;95.49
64961;SHT31;51487;52.266;10.542;2023-11-22T04:40:37;1.32;95.58
64961;SHT31;51487;52.266;10.542;2023-11-22T04:43:03;1.35;95.38
64961;SHT31;51487;52.266;10.542;2023-11-22T04:45:28;1.26;95.52
64961;SHT31;51487;52.266;10.542;2023-11-22T04:47:54;1.22;95.25
64961;SHT31;51487;52.266;10.542;2023-11-22T04:50:22;1.18;95.37
64961;SHT31;51487;52.266;10.542;2023-11-22T04:52:50;1.28;95.14
64961;SHT31;51487;52.266;10.542;2023-11-22T04:55:15;1.25;95.04
64961;SHT31;51487;52.266;10.542;2023-11-22T04:57:41;1.26;94.97
64961;SHT31;51487;52.266;10.542;2023-11-22T05:00:08;1.26;94.91
64961;SHT31;51487;52.266;10.542;2023-11-22T05:02:34;1.24;95.07
64961;SHT31;51487;52.266;10.542;2023-11-22T05:05:00;1.14;95.19
64961;SHT31;51487;52.266;10.542;2023-11-22T05:07:25;1.22;95.25
64961;SHT31;51487;52.266;10.542;2023-11-22T05:09:51;1.19;95.28
64961;SHT31;51487;52.266;10.542;2023-11-22T05:12:16;1.11;95.27
64961;SHT31;51487;52.266;10.542;2023-11-22T05:14:42;1.14;95.15
64961;SHT31;51487;52.266;10.542;2023-11-22T05:17:09;1.18;94.87
64961;SHT31;51487;52.266;10.542;2023-11-22T05:19:34;1.21;94.80
64961;SHT31;51487;52.266;10.542;2023-11-22T05:22:00;1.16;94.67
64961;SHT31;51487;52.266;10.542;2023-11-22T05:24:26;1.05;94.94
64961;SHT31;51487;52.266;10.542;2023-11-22T05:26:51;1.02;94.96
64961;SHT31;51487;52.266;10.542;2023-11-22T05:29:17;1.08;94.90
64961;SHT31;51487;52.266;10.542;2023-11-22T05:31:43;1.12;94.82
64961;SHT31;51487;52.266;10.542;2023-11-22T05:34:08;1.12;94.59
64961;SHT31;51487;52.266;10.542;2023-11-22T05:36:34;1.16;94.56
64961;SHT31;51487;52.266;10.542;2023-11-22T05:38:59;1.08;94.58
64961;SHT31;51487;52.266;10.542;2023-11-22T05:41:26;1.06;94.66
64961;SHT31;51487;52.266;10.542;2023-11-22T05:43:52;1.06;94.76
64961;SHT31;51487;52.266;10.542;2023-11-22T05:46:20;1.11;94.61
64961;SHT31;51487;52.266;10.542;2023-11-22T05:48:51;1.11;94.60
64961;SHT31;51487;52.266;10.542;2023-11-22T05:51:17;1.08;94.64
64961;SHT31;51487;52.266;10.542;2023-11-22T05:53:43;1.04;94.41
64961;SHT31;51487;52.266;10.542;2023-11-22T05:56:09;0.99;94.60
64961;SHT31;51487;52.266;10.542;2023-11-22T05:58:35;0.98;94.78
64961;SHT31;51487;52.266;10.542;2023-11-22T06:01:08;0.95;94.83
64961;SHT31;51487;52.266;10.542;2023-11-22T06:03:36;0.87;94.83
64961;SHT31;51487;52.266;10.542;2023-11-22T06:06:04;0.85;94.86
64961;SHT31;51487;52.266;10.542;2023-11-22T06:08:30;0.78;94.81
64961;SHT31;51487;52.266;10.542;2023-11-22T06:10:56;0.81;95.03
64961;SHT31;51487;52.266;10.542;2023-11-22T06:13:23;0.81;94.93
64961;SHT31;51487;52.266;10.542;2023-11-22T06:15:49;0.85;94.73
64961;SHT31;51487;52.266;10.542;2023-11-22T06:18:15;0.75;94.76
64961;SHT31;51487;52.266;10.542;2023-11-22T06:20:42;0.78;94.74
64961;SHT31;51487;52.266;10.542;2023-11-22T06:23:08;0.83;94.72
64961;SHT31;51487;52.266;10.542;2023-11-22T06:25:34;0.81;94.59
64961;SHT31;51487;52.266;10.542;2023-11-22T06:28:03;0.83;94.62
64961;SHT31;51487;52.266;10.542;2023-11-22T06:30:28;0.75;94.57
64961;SHT31;51487;52.266;10.542;2023-11-22T06:32:56;0.71;94.64
64961;SHT31;51487;52.266;10.542;2023-11-22T06:35:22;0.68;94.85
64961;SHT31;51487;52.266;10.542;2023-11-22T06:37:47;0.74;94.67
64961;SHT31;51487;52.266;10.542;2023-11-22T06:40:13;0.74;94.64
64961;SHT31;51487;52.266;10.542;2023-11-22T06:42:42;0.80;94.60
64961;SHT31;51487;52.266;10.542;2023-11-22T06:45:09;0.75;94.60
64961;SHT31;51487;52.266;10.542;2023-11-22T06:47:42;0.71;94.64
64961;SHT31;51487;52.266;10.542;2023-11-22T06:50:08;0.81;94.65
64961;SHT31;51487;52.266;10.542;2023-11-22T06:52:38;0.94;94.50
64961;SHT31;51487;52.266;10.542;2023-11-22T06:55:08;1.01;94.42
64961;SHT31;51487;52.266;10.542;2023-11-22T06:57:38;1.05;94.32
64961;SHT31;51487;52.266;10.542;2023-11-22T07:00:05;1.14;94.35
64961;SHT31;51487;52.266;10.542;2023-11-22T07:02:32;1.15;94.28
64961;SHT31;51487;52.266;10.542;2023-11-22T07:04:57;1.16;93.88
64961;SHT31;51487;52.266;10.542;2023-11-22T07:07:26;1.18;93.71
64961;SHT31;51487;52.266;10.542;2023-11-22T07:09:52;1.36;93.17
64961;SHT31;51487;52.266;10.542;2023-11-22T07:12:17;1.26;92.82
64961;SHT31;51487;52.266;10.542;2023-11-22T07:14:44;1.14;93.33
64961;SHT31;51487;52.266;10.542;2023-11-22T07:17:10;1.15;93.14
64961;SHT31;51487;52.266;10.542;2023-11-22T07:19:35;1.32;92.39
64961;SHT31;51487;52.266;10.542;2023-11-22T07:22:06;1.31;92.08
64961;SHT31;51487;52.266;10.542;2023-11-22T07:24:48;1.33;91.94
64961;SHT31;51487;52.266;10.542;2023-11-22T07:27:19;1.36;91.87
64961;SHT31;51487;52.266;10.542;2023-11-22T07:29:45;1.12;92.20
64961;SHT31;51487;52.266;10.542;2023-11-22T07:32:11;1.16;92.50
64961;SHT31;51487;52.266;10.542;2023-11-22T07:34:39;1.24;92.34
64961;SHT31;51487;52.266;10.542;2023-11-22T07:37:07;1.18;92.55
64961;SHT31;51487;52.266;10.542;2023-11-22T07:39:36;1.21;92.55
64961;SHT31;51487;52.266;10.542;2023-11-22T07:42:04;1.21;92.21
64961;SHT31;51487;52.266;10.542;2023-11-22T07:44:34;1.24;91.36
64961;SHT31;51487;52.266;10.542;2023-11-22T07:47:04;1.32;91.83
64961;SHT31;51487;52.266;10.542;2023-11-22T07:49:34;1.57;92.33
64961;SHT31;51487;52.266;10.542;2023-11-22T07:52:04;1.62;90.76
64961;SHT31;51487;52.266;10.542;2023-11-22T07:54:31;1.45;90.26
64961;SHT31;51487;52.266;10.542;2023-11-22T07:56:56;1.53;90.32
64961;SHT31;51487;52.266;10.542;2023-11-22T07:59:23;1.46;90.06
64961;SHT31;51487;52.266;10.542;2023-11-22T08:01:48;1.50;89.61
64961;SHT31;51487;52.266;10.542;2023-11-22T08:04:15;1.67;88.61
64961;SHT31;51487;52.266;10.542;2023-11-22T08:06:42;1.68;87.95
64961;SHT31;51487;52.266;10.542;2023-11-22T08:09:08;1.66;87.12
64961;SHT31;51487;52.266;10.542;2023-11-22T08:11:35;1.68;87.41
64961;SHT31;51487;52.266;10.542;2023-11-22T08:14:02;1.77;87.16
64961;SHT31;51487;52.266;10.542;2023-11-22T08:16:28;1.84;85.72
64961;SHT31;51487;52.266;10.542;2023-11-22T08:18:54;1.68;86.43
64961;SHT31;51487;52.266;10.542;2023-11-22T08:21:19;1.77;86.16
64961;SHT31;51487;52.266;10.542;2023-11-22T08:23:48;1.74;85.23
64961;SHT31;51487;52.266;10.542;2023-11-22T08:26:14;1.78;85.18
64961;SHT31;51487;52.266;10.542;2023-11-22T08:28:40;1.78;85.31
64961;SHT31;51487;52.266;10.542;2023-11-22T08:31:06;1.85;84.54
64961;SHT31;51487;52.266;10.542;2023-11-22T08:33:38;1.84;84.25
64961;SHT31;51487;52.266;10.542;2023-11-22T08:36:08;1.88;84.14
64961;SHT31;51487;52.266;10.542;2023-11-22T08:38:39;1.87;83.12
64961;SHT31;51487;52.266;10.542;2023-11-22T08:41:07;1.90;83.17
64961;SHT31;51487;52.266;10.542;2023-11-22T08:43:33;1.97;83.26
64961;SHT31;51487;52.266;10.542;2023-11-22T08:46:00;1.81;83.57
64961;SHT31;51487;52.266;10.542;2023-11-22T08:48:26;1.94;82.46
64961;SHT31;51487;52.266;10.542;2023-11-22T08:50:52;1.88;83.10
64961;SHT31;51487;52.266;10.542;2023-11-22T08:53:19;1.98;82.53
64961;SHT31;51487;52.266;10.542;2023-11-22T08:55:47;1.91;82.83
64961;SHT31;51487;52.266;10.542;2023-11-22T08:58:13;2.14;82.40
64961;SHT31;51487;52.266;10.542;2023-11-22T09:00:40;2.22;81.68
64961;SHT31;51487;52.266;10.542;2023-11-22T09:03:10;2.18;80.50
64961;SHT31;51487;52.266;10.542;2023-11-22T09:05:39;2.17;81.58
64961;SHT31;51487;52.266;10.542;2023-11-22T09:08:05;2.28;81.62
64961;SHT31;51487;52.266;10.542;2023-11-22T09:10:31;2.29;81.14
64961;SHT31;51487;52.266;10.542;2023-11-22T09:12:57;2.52;80.76
64961;SHT31;51487;52.266;10.542;2023-11-22T09:15:25;2.39;80.83
64961;SHT31;51487;52.266;10.542;2023-11-22T09:17:54;2.38;81.14
64961;SHT31;51487;52.266;10.542;2023-11-22T09:20:20;2.39;81.72
64961;SHT31;51487;52.266;10.542;2023-11-22T09:22:54;2.42;80.06
64961;SHT31;51487;52.266;10.542;2023-11-22T09:25:22;2.50;80.58
64961;SHT31;51487;52.266;10.542;2023-11-22T09:27:50;2.43;81.20
64961;SHT31;51487;52.266;10.542;2023-11-22T09:30:23;2.56;81.15
64961;SHT31;51487;52.266;10.542;2023-11-22T09:33:14;2.52;81.34
64961;SHT31;51487;52.266;10.542;2023-11-22T09:35:41;2.69;80.82
64961;SHT31;51487;52.266;10.542;2023-11-22T09:38:09;2.72;81.49
64961;SHT31;51487;52.266;10.542;2023-11-22T09:40:45;6.66;99.99
64961;SHT31;51487;52.266;10.542;2023-11-22T09:43:12;8.57;95.60
64961;SHT31;51487;52.266;10.542;2023-11-22T09:45:44;9.35;84.44
64961;SHT31;51487;52.266;10.542;2023-11-22T09:48:17;10.65;77.94
64961;SHT31;51487;52.266;10.542;2023-11-22T09:54:00;10.09;75.57
64961;SHT31;51487;52.266;10.542;2023-11-22T09:56:30;9.68;59.53
64961;SHT31;51487;52.266;10.542;2023-11-22T09:59:00;7.40;63.52
64961;SHT31;51487;52.266;10.542;2023-11-22T10:01:27;5.91;68.08
64961;SHT31;51487;52.266;10.542;2023-11-22T10:03:54;5.67;69.03
64961;SHT31;51487;52.266;10.542;2023-11-22T10:06:20;4.92;70.70
64961;SHT31;51487;52.266;10.542;2023-11-22T10:08:46;4.41;72.82
64961;SHT31;51487;52.266;10.542;2023-11-22T10:11:16;4.24;72.70
64961;SHT31;51487;52.266;10.542;2023-11-22T10:13:50;4.13;72.48
64961;SHT31;51487;52.266;10.542;2023-11-22T10:16:17;3.93;72.98
64961;SHT31;51487;52.266;10.542;2023-11-22T10:18:45;3.85;72.99
64961;SHT31;51487;52.266;10.542;2023-11-22T10:21:24;3.55;75.16
64961;SHT31;51487;52.266;10.542;2023-11-22T10:23:54;3.52;76.23
64961;SHT31;51487;52.266;10.542;2023-11-22T10:26:22;3.35;76.95
64961;SHT31;51487;52.266;10.542;2023-11-22T10:28:51;3.63;75.44
64961;SHT31;51487;52.266;10.542;2023-11-22T10:31:19;3.58;76.55
64961;SHT31;51487;52.266;10.542;2023-11-22T10:33:46;3.46;76.32
64961;SHT31;51487;52.266;10.542;2023-11-22T10:36:14;3.63;76.45
64961;SHT31;51487;52.266;10.542;2023-11-22T10:38:46;3.72;76.78
64961;SHT31;51487;52.266;10.542;2023-11-22T10:41:12;3.56;76.00
64961;SHT31;51487;52.266;10.542;2023-11-22T10:43:40;3.61;76.14
64961;SHT31;51487;52.266;10.542;2023-11-22T10:46:07;3.48;75.60
64961;SHT31;51487;52.266;10.542;2023-11-22T10:48:36;3.03;75.58
64961;SHT31;51487;52.266;10.542;2023-11-22T10:51:04;3.30;75.45
64961;SHT31;51487;52.266;10.542;2023-11-22T10:53:33;3.45;76.38
64961;SHT31;51487;52.266;10.542;2023-11-22T10:56:20;3.72;75.57
64961;SHT31;51487;52.266;10.542;2023-11-22T10:58:56;3.63;76.31
64961;SHT31;51487;52.266;10.542;2023-11-22T11:01:26;3.55;75.07
64961;SHT31;51487;52.266;10.542;2023-11-22T11:04:09;3.79;75.01
64961;SHT31;51487;52.266;10.542;2023-11-22T11:06:37;3.96;73.27
64961;SHT31;51487;52.266;10.542;2023-11-22T11:09:06;3.97;73.46
64961;SHT31;51487;52.266;10.542;2023-11-22T11:11:36;3.97;73.44
64961;SHT31;51487;52.266;10.542;2023-11-22T11:14:03;3.66;74.65
64961;SHT31;51487;52.266;10.542;2023-11-22T11:16:32;3.66;74.33
64961;SHT31;51487;52.266;10.542;2023-11-22T11:19:04;3.55;75.35
64961;SHT31;51487;52.266;10.542;2023-11-22T11:21:30;3.56;74.82
64961;SHT31;51487;52.266;10.542;2023-11-22T11:23:58;3.58;74.79
64961;SHT31;51487;52.266;10.542;2023-11-22T11:26:28;3.46;75.68
64961;SHT31;51487;52.266;10.542;2023-11-22T11:28:54;3.31;75.73
64961;SHT31;51487;52.266;10.542;2023-11-22T11:31:23;3.45;75.74
64961;SHT31;51487;52.266;10.542;2023-11-22T11:36:41;3.59;75.94
64961;SHT31;51487;52.266;10.542;2023-11-22T11:39:12;3.36;75.03
64961;SHT31;51487;52.266;10.542;2023-11-22T11:41:41;3.62;74.80
64961;SHT31;51487;52.266;10.542;2023-11-22T11:44:10;3.61;74.45
64961;SHT31;51487;52.266;10.542;2023-11-22T11:46:38;3.63;74.31
64961;SHT31;51487;52.266;10.542;2023-11-22T11:49:12;3.86;72.82
64961;SHT31;51487;52.266;10.542;2023-11-22T11:51:39;3.81;74.17
64961;SHT31;51487;52.266;10.542;2023-11-22T11:54:05;3.89;73.58
64961;SHT31;51487;52.266;10.542;2023-11-22T11:56:33;3.72;72.85
64961;SHT31;51487;52.266;10.542;2023-11-22T11:58:59;3.71;72.27
64961;SHT31;51487;52.266;10.542;2023-11-22T12:01:28;3.55;71.53
64961;SHT31;51487;52.266;10.542;2023-11-22T12:03:55;3.69;71.65
64961;SHT31;51487;52.266;10.542;2023-11-22T12:06:21;3.55;72.19
64961;SHT31;51487;52.266;10.542;2023-11-22T12:08:47;3.34;72.51
64961;SHT31;51487;52.266;10.542;2023-11-22T12:11:15;3.36;72.39
64961;SHT31;51487;52.266;10.542;2023-11-22T12:13:41;3.36;72.42
64961;SHT31;51487;52.266;10.542;2023-11-22T12:16:14;3.44;72.44
64961;SHT31;51487;52.266;10.542;2023-11-22T12:18:43;3.51;73.00
64961;SHT31;51487;52.266;10.542;2023-11-22T12:21:10;3.51;71.88
64961;SHT31;51487;52.266;10.542;2023-11-22T12:23:41;3.48;72.33
64961;SHT31;51487;52.266;10.542;2023-11-22T12:26:13;3.42;70.62
64961;SHT31;51487;52.266;10.542;2023-11-22T12:28:40;3.48;71.84
64961;SHT31;51487;52.266;10.542;2023-11-22T12:31:11;3.38;71.84
64961;SHT31;51487;52.266;10.542;2023-11-22T12:33:39;3.51;71.63
64961;SHT31;51487;52.266;10.542;2023-11-22T12:36:08;3.41;72.41
64961;SHT31;51487;52.266;10.542;2023-11-22T12:38:42;3.38;73.03
64961;SHT31;51487;52.266;10.542;2023-11-22T12:41:07;3.59;73.42
64961;SHT31;51487;52.266;10.542;2023-11-22T12:43:34;3.73;73.76
64961;SHT31;51487;52.266;10.542;2023-11-22T12:46:04;3.62;72.31
64961;SHT31;51487;52.266;10.542;2023-11-22T12:48:29;3.54;73.24
64961;SHT31;51487;52.266;10.542;2023-11-22T12:50:59;3.73;73.70
64961;SHT31;51487;52.266;10.542;2023-11-22T12:53:26;3.46;72.49
64961;SHT31;51487;52.266;10.542;2023-11-22T12:55:54;3.62;72.89
64961;SHT31;51487;52.266;10.542;2023-11-22T12:58:25;3.56;71.99
64961;SHT31;51487;52.266;10.542;2023-11-22T13:00:55;3.69;71.83
64961;SHT31;51487;52.266;10.542;2023-11-22T13:03:24;3.69;70.95
64961;SHT31;51487;52.266;10.542;2023-11-22T13:05:51;3.55;70.78
64961;SHT31;51487;52.266;10.542;2023-11-22T13:08:20;3.62;71.09
64961;SHT31;51487;52.266;10.542;2023-11-22T13:10:49;3.58;71.44
64961;SHT31;51487;52.266;10.542;2023-11-22T13:13:25;3.55;72.05
64961;SHT31;51487;52.266;10.542;2023-11-22T13:15:53;3.56;73.30
64961;SHT31;51487;52.266;10.542;2023-11-22T13:18:19;3.44;73.92
64961;SHT31;51487;52.266;10.542;2023-11-22T13:20:45;3.41;73.74
64961;SHT31;51487;52.266;10.542;2023-11-22T13:23:11;3.46;73.70
64961;SHT31;51487;52.266;10.542;2023-11-22T13:25:39;3.51;73.40
64961;SHT31;51487;52.266;10.542;2023-11-22T13:28:06;3.45;74.15
64961;SHT31;51487;52.266;10.542;2023-11-22T13:30:32;3.20;75.57
64961;SHT31;51487;52.266;10.542;2023-11-22T13:32:58;3.20;76.11
64961;SHT31;51487;52.266;10.542;2023-11-22T13:35:25;3.28;76.06
64961;SHT31;51487;52.266;10.542;2023-11-22T13:37:53;3.27;76.30
64961;SHT31;51487;52.266;10.542;2023-11-22T13:40:20;3.30;77.29
64961;SHT31;51487;52.266;10.542;2023-11-22T13:42:51;3.23;76.79
64961;SHT31;51487;52.266;10.542;2023-11-22T13:45:20;3.28;76.99
64961;SHT31;51487;52.266;10.542;2023-11-22T13:47:48;3.41;77.60
64961;SHT31;51487;52.266;10.542;2023-11-22T13:50:15;3.31;77.57
64961;SHT31;51487;52.266;10.542;2023-11-22T13:52:54;3.38;78.69
64961;SHT31;51487;52.266;10.542;2023-11-22T13:55:21;3.39;78.51
64961;SHT31;51487;52.266;10.542;2023-11-22T13:57:57;3.51;78.33
64961;SHT31;51487;52.266;10.542;2023-11-22T14:00:26;3.35;78.46
64961;SHT31;51487;52.266;10.542;2023-11-22T14:02:56;3.32;78.73
64961;SHT31;51487;52.266;10.542;2023-11-22T14:05:23;3.38;79.23
64961;SHT31;51487;52.266;10.542;2023-11-22T14:07:49;3.45;79.02
64961;SHT31;51487;52.266;10.542;2023-11-22T14:10:17;3.50;79.13
64961;SHT31;51487;52.266;10.542;2023-11-22T14:12:43;3.25;79.90
64961;SHT31;51487;52.266;10.542;2023-11-22T14:15:11;3.35;79.79
64961;SHT31;51487;52.266;10.542;2023-11-22T14:17:36;3.35;79.94
64961;SHT31;51487;52.266;10.542;2023-11-22T14:20:11;3.39;79.84
64961;SHT31;51487;52.266;10.542;2023-11-22T14:22:37;3.23;80.15
64961;SHT31;51487;52.266;10.542;2023-11-22T14:25:05;3.17;80.13
64961;SHT31;51487;52.266;10.542;2023-11-22T14:27:46;3.13;79.90
64961;SHT31;51487;52.266;10.542;2023-11-22T14:30:16;3.20;79.92
64961;SHT31;51487;52.266;10.542;2023-11-22T14:32:43;3.25;79.95
64961;SHT31;51487;52.266;10.542;2023-11-22T14:35:09;3.35;79.74
64961;SHT31;51487;52.266;10.542;2023-11-22T14:37:39;3.34;79.20
64961;SHT31;51487;52.266;10.542;2023-11-22T14:40:09;3.24;79.47
64961;SHT31;51487;52.266;10.542;2023-11-22T14:42:45;3.27;80.07
64961;SHT31;51487;52.266;10.542;2023-11-22T14:45:14;3.13;79.57
64961;SHT31;51487;52.266;10.542;2023-11-22T14:47:40;3.11;79.85
64961;SHT31;51487;52.266;10.542;2023-11-22T14:50:08;3.01;80.60
64961;SHT31;51487;52.266;10.542;2023-11-22T14:52:37;3.21;80.47
64961;SHT31;51487;52.266;10.542;2023-11-22T14:55:03;3.17;79.95
64961;SHT31;51487;52.266;10.542;2023-11-22T14:57:31;3.24;80.52
64961;SHT31;51487;52.266;10.542;2023-11-22T14:59:56;3.14;80.43
64961;SHT31;51487;52.266;10.542;2023-11-22T15:02:22;3.14;80.31
64961;SHT31;51487;52.266;10.542;2023-11-22T15:04:48;3.15;80.00
64961;SHT31;51487;52.266;10.542;2023-11-22T15:07:13;3.10;80.21
64961;SHT31;51487;52.266;10.542;2023-11-22T15:09:41;3.07;80.73
64961;SHT31;51487;52.266;10.542;2023-11-22T15:12:06;2.97;80.68
64961;SHT31;51487;52.266;10.542;2023-11-22T15:14:33;3.07;80.71
64961;SHT31;51487;52.266;10.542;2023-11-22T15:16:59;3.03;80.88
64961;SHT31;51487;52.266;10.542;2023-11-22T15:19:31;3.05;81.29
64961;SHT31;51487;52.266;10.542;2023-11-22T15:21:57;3.10;80.91
64961;SHT31;51487;52.266;10.542;2023-11-22T15:24:24;3.03;81.62
64961;SHT31;51487;52.266;10.542;2023-11-22T15:26:49;3.01;81.66
64961;SHT31;51487;52.266;10.542;2023-11-22T15:29:15;3.00;81.62
64961;SHT31;51487;52.266;10.542;2023-11-22T15:31:42;3.03;81.54
64961;SHT31;51487;52.266;10.542;2023-11-22T15:34:09;3.08;81.61
64961;SHT31;51487;52.266;10.542;2023-11-22T15:36:34;3.04;80.92